Metar Cercanos

 

LEPA - Palma De Mallorc, Spain
Distance from station: ONO 38km
Actualización: 23/09/2018 10:00
Despejado
Despejado
 Viento del NO
Viento: NO 2 km/h
Temperatura: 25°C
Rocío: 22°C
Humedad: 83%
Barómetro: 1022 hPa
Resumen: Despejado
Visibility: greater than 10 km
2018/09/23 08:00 LEPA 230800Z 32001KT CAVOK 25/22 Q1022 NOSIG
LEMH - Mahon/Menorca Is, Spain
Distance from station: ENE 105km
Actualización: 23/09/2018 10:00
Few Clouds
Few Clouds
 Viento del NO
Viento: NO 7 km/h
Temperatura: 25°C
Rocío: 21°C
Humedad: 79%
Barómetro: 1022 hPa
Clouds: Few Clouds
Visibility: 10 km
Cloud details: Few Clouds 488 m
2018/09/23 08:00 LEMH 230800Z 32004KT 270V020 9999 FEW016 25/21 Q1022
 
LEIB - Ibiza/Es Codola, Spain
Distance from station: OSO 165km
Actualización: 23/09/2018 10:00
Despejado
Despejado
 Viento del varies
Viento: varies 2 km/h
Temperatura: 26°C
Rocío: 21°C
Humedad: 74%
Barómetro: 1022 hPa
Resumen: Despejado
Visibility: greater than 10 km
2018/09/23 08:00 LEIB 230800Z VRB01KT CAVOK 26/21 Q1022 NOSIG
LEBL - Barcelona Airpor, Spain
Distance from station: NNO 225km
Actualización: 23/09/2018 10:00
Muy nuboso
Muy nuboso
 Viento del NO
Viento: NO 11 km/h
Temperatura: 24°C
Rocío: 20°C
Humedad: 78%
Barómetro: 1022 hPa
Clouds: Muy nuboso
Visibility: 10 km
Cloud details: Few Clouds 549 m
Muy nuboso 671 m
2018/09/23 08:00 LEBL 230800Z 31006KT 280V340 9999 FEW018 BKN022 24/20 Q1022 NOSIG
 
LEVC - Valencia (civ/Mi, Spain
Distance from station: NO 188km
Actualización: 23/09/2018 10:00
Despejado
Despejado
 Viento del NO
Viento: NO 9 km/h
Temperatura: 25°C
Rocío: 19°C
Humedad: 69%
Barómetro: 1022 hPa
Resumen: Despejado
Visibility: greater than 10 km
2018/09/23 08:00 LEVC 230800Z 32005KT CAVOK 25/19 Q1022 NOSIG
LEGE - Gerona/Costa Bra, Spain
Distance from station: N 276km
Actualización: 23/09/2018 10:00
Despejado
Despejado
 Viento del varies
Viento: varies 4 km/h
Temperatura: 22°C
Rocío: 20°C
Humedad: 88%
Barómetro: 1022 hPa
Resumen: Despejado
Visibility: greater than 10 km
2018/09/23 08:00 LEGE 230800Z VRB02KT CAVOK 22/20 Q1022
 
LEAL - Alicante/El Alte, Spain
Distance from station: OSO 344km
Actualización: 23/09/2018 10:00
Despejado
Despejado
 Viento del calm
Viento: Calma
Temperatura: 26°C
Rocío: 21°C
Humedad: 74%
Barómetro: 1022 hPa
Resumen: Despejado
Visibility: greater than 10 km
2018/09/23 08:00 LEAL 230800Z 00000KT CAVOK 26/21 Q1022 NOSIG
LEAM - Almeria Airport, Spain
Distance from station: SSO 56km
Actualización: 23/09/2018 10:00
Despejado
Despejado
 Viento del N
Viento: N 13 km/h
Temperatura: 29°C
Rocío: 9°C
Humedad: 29%
Barómetro: 1021 hPa
Resumen: Despejado
Visibility: greater than 10 km
2018/09/23 08:00 LEAM 230800Z 35007KT 300V020 CAVOK 29/09 Q1021
 
LEZG - Zaragoza (mil/Ci, Spain
Distance from station: NO 431km
Actualización: 23/09/2018 10:00
Despejado
Despejado
 Viento del ONO
Viento: ONO 20 km/h
Temperatura: 23°C
Rocío: 14°C
Humedad: 57%
Barómetro: 1024 hPa
Resumen: Despejado
Visibility: greater than 10 km
2018/09/23 08:00 LEZG 230800Z 29011KT CAVOK 23/14 Q1024
LEMD - Madrid/Barajas, Spain
Distance from station: ONO 234km
Actualización: 23/09/2018 10:00
Despejado
Despejado
 Viento del varies
Viento: varies 4 km/h
Temperatura: 21°C
Rocío: 9°C
Humedad: 46%
Barómetro: 1025 hPa
Resumen: Despejado
Visibility: greater than 10 km
2018/09/23 08:00 LEMD 230800Z VRB02KT CAVOK 21/09 Q1025 NOSIG
 
LEGR - Granada Airport, Spain
Distance from station: OSO 62km
Actualización: 23/09/2018 10:00
Despejado
Despejado
 Viento del calm
Viento: Calma
Temperatura: 20°C
Rocío: 15°C
Humedad: 73%
Barómetro: 1025 hPa
Resumen: Despejado
Visibility: greater than 10 km
2018/09/23 08:00 LEGR 230800Z 00000KT CAVOK 20/15 Q1025
LEMG - Malaga (civ/Mil), Spain
Distance from station: OSO 227km
Actualización: 23/09/2018 10:00
Despejado
Despejado
 Viento del ONO
Viento: ONO 17 km/h
Temperatura: 22°C
Rocío: 13°C
Humedad: 57%
Barómetro: 1022 hPa
Resumen: Despejado
Visibility: greater than 10 km
2018/09/23 08:00 LEMG 230800Z 30009KT CAVOK 22/13 Q1022 NOSIG
 
LEZL - Sevilla (civ/Mil, Spain
Distance from station: S 318km
Actualización: 23/09/2018 10:00
Despejado
Despejado
 Viento del ENE
Viento: ENE 15 km/h
Temperatura: 26°C
Rocío: 10°C
Humedad: 37%
Barómetro: 1021 hPa
Resumen: Despejado
Visibility: greater than 10 km
2018/09/23 08:00 LEZL 230800Z 06008KT CAVOK 26/10 Q1021 NOSIG
LEVT - Vitoria, Spain
Distance from station: NO 226km
Actualización: 23/09/2018 10:00
Few Clouds
Few Clouds
 Viento del calm
Viento: Calma
Temperatura: 17°C
Rocío: 14°C
Humedad: 83%
Barómetro: 1026 hPa
Clouds: Few Clouds
Visibility: 9 km
Cloud details: Few Clouds 610 m
2018/09/23 08:00 LEVT 230800Z 00000KT 9000 FEW020 17/14 Q1026
 
LEBB - Bilbao/Sondica, Spain
Distance from station: NNO 235km
Actualización: 23/09/2018 10:00
Despejado
Despejado
 Viento del ESE
Viento: ESE 6 km/h
Temperatura: 20°C
Rocío: 16°C
Humedad: 78%
Barómetro: 1024 hPa
Resumen: Despejado
Visibility: greater than 10 km
2018/09/23 08:00 LEBB 230800Z 11003KT 060V170 CAVOK 20/16 Q1024 NOSIG
LESO - San Sebastian/Fu, Spain
Distance from station: N 231km
Actualización: 23/09/2018 10:00
Despejado
Despejado
 Viento del S
Viento: S 6 km/h
Temperatura: 20°C
Rocío: 17°C
Humedad: 83%
Barómetro: 1024 hPa
Resumen: Despejado
Visibility: greater than 10 km
2018/09/23 08:00 LESO 230800Z 17003KT 140V200 CAVOK 20/17 Q1024
 
LEVD - Valladolid(Mil/C, Spain
Distance from station: ONO 239km
Actualización: 23/09/2018 10:00
Despejado
Despejado
 Viento del varies
Viento: varies 4 km/h
Temperatura: 17°C
Rocío: 10°C
Humedad: 64%
Barómetro: 1027 hPa
Resumen: Despejado
Visibility: greater than 10 km
2018/09/23 08:00 LEVD 230800Z VRB02KT CAVOK 17/10 Q1027
LESA - Salamanca (civ/M, Spain
Distance from station: ONO 349km
Actualización: 23/09/2018 10:00
Despejado
Despejado
 Viento del varies
Viento: varies 2 km/h
Temperatura: 15°C
Rocío: 9°C
Humedad: 68%
Barómetro: 1027 hPa
Resumen: Despejado
Visibility: greater than 10 km
2018/09/23 08:00 LESA 230800Z VRB01KT CAVOK 15/09 Q1027
 
LEXJ - Santander/Paraya, Spain
Distance from station: NNO 247km
Actualización: 23/09/2018 10:00
Despejado
Despejado
 Viento del varies
Viento: varies 2 km/h
Temperatura: 19°C
Rocío: 17°C
Humedad: 88%
Barómetro: 1024 hPa
Resumen: Despejado
Visibility: greater than 10 km
2018/09/23 08:00 LEXJ 230800Z VRB01KT CAVOK 19/17 Q1024
LEAS - Asturias/Aviles, Spain
Distance from station: NO 214km
Actualización: 23/09/2018 10:00
Mist, Muy nuboso
Mist, Muy nuboso
 Viento del O
Viento: O 7 km/h
Temperatura: 18°C
Rocío: 18°C
Humedad: 100%
Barómetro: 1024 hPa
Resumen: Mist
Clouds: Muy nuboso
Visibility: 3 km
Cloud details: Parcialmente nuboso 61 m
Muy nuboso 122 m
Muy nuboso 305 m
2018/09/23 08:00 LEAS 230800Z 26004KT 220V300 3000 BR SCT002 BKN004 BKN010 18/18 Q1024 TEMPO 0800 BCFG BKN001
 
LECO - La Coruna/Alvedr, Spain
Distance from station: ONO 222km
Actualización: 23/09/2018 10:00
Nearby fog, Muy nuboso
Nearby fog, Muy nuboso
 Viento del S
Viento: S 7 km/h
Temperatura: 18°C
Rocío: 17°C
Humedad: 94%
Barómetro: 1025 hPa
Resumen: Nearby Fog
Clouds: Muy nuboso
Visibility: 9 km
Cloud details: Muy nuboso 366 m
2018/09/23 08:00 LECO 230800Z 17004KT 9000 VCFG BKN012 18/17 Q1025 BECMG BKN015
LEVX - Vigo/Peinador, Spain
Distance from station: O 214km
Actualización: 23/09/2018 10:00
Patches of fog, Parcialmente nuboso
Patches of fog, Parcialmente nuboso
 Viento del varies
Viento: varies 2 km/h
Temperatura: 17°C
Rocío: 17°C
Humedad: 100%
Barómetro: 1025 hPa
Resumen: Patches of Fog
Clouds: Parcialmente nuboso
Visibility: 10 km
2018/09/23 08:00 LEVX 230800Z VRB01KT 9999 1000N R19/0650U BCFG NSC 17/17 Q1025 TEMPO 0800 BCFG